CheckWX is a tool to help pilots better visualize weather data.  It is not intended as a substitute for an official pre-flight weather briefing.

10:07:03 UTC

LFOT TAF
Tours-Val-de-Loire Airport
Tours/Val de Loire (Loire Valley), France
TAF LFOT 260500Z 2606/2706 05010KT CAVOK

Jun-26@
06:00 UTC

Jun-26 @ 06:00 UTC

Jun-27@
06:00 UTC

Jun-27 @ 06:00 UTC

TAF LFOT 260500Z 2606/2706 05010KT CAVOK
Wind
  • 050° at 10 KTS
Conditions
No significant weather
Cloud Levels
  • No significant clouds